Terminal Aerodrome Forecast
Issued by NWS

Home | Current Version | Previous Version | Text Only | Print | Product List | Glossary On
Versions: 1 2 3 4 5 6 7 8 9 10 11 12 13 14 15 16
000
FTUS42 KTAE 230500
TAFDHN
TAF
KDHN 230521Z 2306/2406 VRB03KT P6SM SCT040
     FM231000 32004KT 6SM BR SCT007 SCT100
     FM231400 35006KT P6SM SCT040=

USA.gov is the U.S. government's official web portal to all federal, state and local government web resources and services.